sensor_id;sensor_type;location;lat;lon;timestamp;P1;durP1;ratioP1;P2;durP2;ratioP2
22571;SDS011;11452;53.368;14.658;2023-04-08T12:00:57;22.47;;;15.43;;
22571;SDS011;11452;53.368;14.658;2023-04-08T12:06:02;18.13;;;14.03;;
22571;SDS011;11452;53.368;14.658;2023-04-08T12:11:12;19.80;;;13.00;;
22571;SDS011;11452;53.368;14.658;2023-04-08T12:16:20;20.77;;;14.03;;
22571;SDS011;11452;53.368;14.658;2023-04-08T12:21:25;16.60;;;13.20;;
22571;SDS011;11452;53.368;14.658;2023-04-08T12:26:31;18.50;;;13.43;;
22571;SDS011;11452;53.368;14.658;2023-04-08T12:31:37;20.83;;;15.03;;
22571;SDS011;11452;53.368;14.658;2023-04-08T12:36:43;18.80;;;14.50;;
22571;SDS011;11452;53.368;14.658;2023-04-08T12:41:48;21.27;;;14.00;;
22571;SDS011;11452;53.368;14.658;2023-04-08T12:46:54;18.97;;;13.80;;
22571;SDS011;11452;53.368;14.658;2023-04-08T12:52:01;18.27;;;12.83;;
22571;SDS011;11452;53.368;14.658;2023-04-08T12:57:08;21.20;;;14.43;;
22571;SDS011;11452;53.368;14.658;2023-04-08T13:02:13;14.90;;;12.60;;
22571;SDS011;11452;53.368;14.658;2023-04-08T13:07:19;19.00;;;13.33;;
22571;SDS011;11452;53.368;14.658;2023-04-08T13:12:25;16.80;;;12.67;;
22571;SDS011;11452;53.368;14.658;2023-04-08T13:17:32;19.17;;;13.93;;
22571;SDS011;11452;53.368;14.658;2023-04-08T13:22:38;20.17;;;14.03;;
22571;SDS011;11452;53.368;14.658;2023-04-08T13:27:44;17.43;;;14.17;;
22571;SDS011;11452;53.368;14.658;2023-04-08T13:32:50;17.17;;;14.27;;
22571;SDS011;11452;53.368;14.658;2023-04-08T13:37:56;17.03;;;13.50;;
22571;SDS011;11452;53.368;14.658;2023-04-08T13:43:01;18.97;;;13.73;;
22571;SDS011;11452;53.368;14.658;2023-04-08T13:48:07;19.70;;;13.27;;
22571;SDS011;11452;53.368;14.658;2023-04-08T13:53:13;15.37;;;12.70;;
22571;SDS011;11452;53.368;14.658;2023-04-08T13:58:20;15.60;;;12.63;;
22571;SDS011;11452;53.368;14.658;2023-04-08T14:03:27;18.27;;;13.23;;
22571;SDS011;11452;53.368;14.658;2023-04-08T14:08:32;18.60;;;14.50;;
22571;SDS011;11452;53.368;14.658;2023-04-08T14:13:38;17.40;;;13.77;;
22571;SDS011;11452;53.368;14.658;2023-04-08T14:18:44;19.73;;;14.80;;
22571;SDS011;11452;53.368;14.658;2023-04-08T14:23:49;17.20;;;12.77;;
22571;SDS011;11452;53.368;14.658;2023-04-08T14:28:55;15.80;;;12.93;;
22571;SDS011;11452;53.368;14.658;2023-04-08T14:34:00;15.33;;;13.60;;
22571;SDS011;11452;53.368;14.658;2023-04-08T14:39:07;17.07;;;12.67;;
22571;SDS011;11452;53.368;14.658;2023-04-08T14:44:14;16.30;;;12.97;;
22571;SDS011;11452;53.368;14.658;2023-04-08T14:49:20;16.27;;;12.73;;
22571;SDS011;11452;53.368;14.658;2023-04-08T14:54:25;17.80;;;12.97;;
22571;SDS011;11452;53.368;14.658;2023-04-08T14:59:31;18.20;;;13.90;;
22571;SDS011;11452;53.368;14.658;2023-04-08T15:04:36;16.27;;;12.20;;
22571;SDS011;11452;53.368;14.658;2023-04-08T15:09:42;18.20;;;12.83;;
22571;SDS011;11452;53.368;14.658;2023-04-08T15:14:48;14.40;;;12.67;;
22571;SDS011;11452;53.368;14.658;2023-04-08T15:19:53;15.10;;;11.93;;
22571;SDS011;11452;53.368;14.658;2023-04-08T15:24:59;16.23;;;11.80;;
22571;SDS011;11452;53.368;14.658;2023-04-08T15:30:06;16.83;;;11.63;;
22571;SDS011;11452;53.368;14.658;2023-04-08T15:35:14;15.03;;;11.93;;
22571;SDS011;11452;53.368;14.658;2023-04-08T15:40:20;14.23;;;11.00;;
22571;SDS011;11452;53.368;14.658;2023-04-08T15:45:25;17.60;;;13.00;;
22571;SDS011;11452;53.368;14.658;2023-04-08T15:50:31;17.50;;;10.93;;
22571;SDS011;11452;53.368;14.658;2023-04-08T15:55:37;18.63;;;12.07;;
22571;SDS011;11452;53.368;14.658;2023-04-08T16:00:44;19.03;;;12.80;;
22571;SDS011;11452;53.368;14.658;2023-04-08T16:05:49;18.67;;;11.70;;
22571;SDS011;11452;53.368;14.658;2023-04-08T16:10:58;18.10;;;10.97;;
22571;SDS011;11452;53.368;14.658;2023-04-08T16:16:09;15.80;;;11.30;;
22571;SDS011;11452;53.368;14.658;2023-04-08T16:21:15;15.40;;;11.07;;
22571;SDS011;11452;53.368;14.658;2023-04-08T16:26:21;17.90;;;11.43;;
22571;SDS011;11452;53.368;14.658;2023-04-08T16:31:27;18.90;;;11.87;;
22571;SDS011;11452;53.368;14.658;2023-04-08T16:36:33;19.60;;;11.17;;
22571;SDS011;11452;53.368;14.658;2023-04-08T16:41:40;17.30;;;11.23;;
22571;SDS011;11452;53.368;14.658;2023-04-08T16:46:46;21.10;;;12.70;;
22571;SDS011;11452;53.368;14.658;2023-04-08T16:51:51;21.63;;;12.23;;
22571;SDS011;11452;53.368;14.658;2023-04-08T16:56:58;26.37;;;13.30;;
22571;SDS011;11452;53.368;14.658;2023-04-08T17:02:04;19.40;;;11.23;;
22571;SDS011;11452;53.368;14.658;2023-04-08T17:07:10;17.83;;;10.40;;
22571;SDS011;11452;53.368;14.658;2023-04-08T17:12:17;18.70;;;10.40;;
22571;SDS011;11452;53.368;14.658;2023-04-08T17:17:23;15.77;;;9.17;;
22571;SDS011;11452;53.368;14.658;2023-04-08T17:22:29;13.60;;;9.27;;
22571;SDS011;11452;53.368;14.658;2023-04-08T17:27:34;13.53;;;8.37;;
22571;SDS011;11452;53.368;14.658;2023-04-08T17:32:40;16.53;;;9.17;;
22571;SDS011;11452;53.368;14.658;2023-04-08T17:37:45;16.47;;;9.53;;
22571;SDS011;11452;53.368;14.658;2023-04-08T17:42:52;16.13;;;8.00;;
22571;SDS011;11452;53.368;14.658;2023-04-08T17:47:59;11.77;;;7.63;;
22571;SDS011;11452;53.368;14.658;2023-04-08T17:53:07;12.30;;;7.30;;
22571;SDS011;11452;53.368;14.658;2023-04-08T17:58:13;12.17;;;7.23;;
22571;SDS011;11452;53.368;14.658;2023-04-08T18:03:18;11.57;;;8.17;;
22571;SDS011;11452;53.368;14.658;2023-04-08T18:08:24;12.43;;;7.73;;
22571;SDS011;11452;53.368;14.658;2023-04-08T18:13:30;12.53;;;7.40;;
22571;SDS011;11452;53.368;14.658;2023-04-08T18:18:36;13.53;;;8.37;;
22571;SDS011;11452;53.368;14.658;2023-04-08T18:23:41;13.57;;;7.80;;
22571;SDS011;11452;53.368;14.658;2023-04-08T18:28:48;13.10;;;8.93;;
22571;SDS011;11452;53.368;14.658;2023-04-08T18:33:54;15.07;;;9.50;;
22571;SDS011;11452;53.368;14.658;2023-04-08T18:39:00;13.20;;;8.83;;
22571;SDS011;11452;53.368;14.658;2023-04-08T18:44:07;11.67;;;7.53;;
22571;SDS011;11452;53.368;14.658;2023-04-08T18:49:13;11.70;;;6.90;;
22571;SDS011;11452;53.368;14.658;2023-04-08T18:54:19;12.07;;;7.60;;
22571;SDS011;11452;53.368;14.658;2023-04-08T18:59:25;17.17;;;11.00;;
22571;SDS011;11452;53.368;14.658;2023-04-08T19:04:32;16.27;;;9.50;;
22571;SDS011;11452;53.368;14.658;2023-04-08T19:09:38;20.87;;;11.60;;
22571;SDS011;11452;53.368;14.658;2023-04-08T19:14:43;22.40;;;11.17;;
22571;SDS011;11452;53.368;14.658;2023-04-08T19:19:49;18.43;;;9.77;;
22571;SDS011;11452;53.368;14.658;2023-04-08T19:24:55;15.60;;;10.30;;
22571;SDS011;11452;53.368;14.658;2023-04-08T19:30:00;21.30;;;10.70;;
22571;SDS011;11452;53.368;14.658;2023-04-08T19:35:06;15.40;;;10.00;;
22571;SDS011;11452;53.368;14.658;2023-04-08T19:40:13;22.20;;;12.10;;
22571;SDS011;11452;53.368;14.658;2023-04-08T19:45:19;17.83;;;11.63;;
22571;SDS011;11452;53.368;14.658;2023-04-08T19:50:24;18.37;;;12.03;;
22571;SDS011;11452;53.368;14.658;2023-04-08T19:55:30;16.90;;;12.87;;
22571;SDS011;11452;53.368;14.658;2023-04-08T20:00:37;23.80;;;13.63;;
22571;SDS011;11452;53.368;14.658;2023-04-08T20:05:49;25.47;;;13.07;;
22571;SDS011;11452;53.368;14.658;2023-04-08T20:10:51;23.67;;;13.57;;
22571;SDS011;11452;53.368;14.658;2023-04-08T20:15:56;26.97;;;14.27;;
22571;SDS011;11452;53.368;14.658;2023-04-08T20:21:02;30.17;;;15.57;;
22571;SDS011;11452;53.368;14.658;2023-04-08T20:26:10;28.00;;;16.63;;
22571;SDS011;11452;53.368;14.658;2023-04-08T20:31:16;27.50;;;15.70;;
22571;SDS011;11452;53.368;14.658;2023-04-08T20:36:22;26.40;;;15.53;;
22571;SDS011;11452;53.368;14.658;2023-04-08T20:41:28;27.43;;;15.17;;
22571;SDS011;11452;53.368;14.658;2023-04-08T20:46:34;25.93;;;15.17;;
22571;SDS011;11452;53.368;14.658;2023-04-08T20:51:40;23.00;;;14.27;;
22571;SDS011;11452;53.368;14.658;2023-04-08T20:56:46;24.03;;;14.23;;
22571;SDS011;11452;53.368;14.658;2023-04-08T21:01:52;27.10;;;13.33;;
22571;SDS011;11452;53.368;14.658;2023-04-08T21:06:57;23.37;;;13.57;;
22571;SDS011;11452;53.368;14.658;2023-04-08T21:12:03;20.57;;;12.70;;
22571;SDS011;11452;53.368;14.658;2023-04-08T21:17:09;23.93;;;13.10;;
22571;SDS011;11452;53.368;14.658;2023-04-08T21:22:15;19.53;;;13.07;;
22571;SDS011;11452;53.368;14.658;2023-04-08T21:27:21;26.23;;;13.77;;
22571;SDS011;11452;53.368;14.658;2023-04-08T21:32:27;18.57;;;11.87;;
22571;SDS011;11452;53.368;14.658;2023-04-08T21:37:33;23.73;;;12.57;;
22571;SDS011;11452;53.368;14.658;2023-04-08T21:42:39;20.37;;;12.33;;
22571;SDS011;11452;53.368;14.658;2023-04-08T21:47:45;21.33;;;12.57;;
22571;SDS011;11452;53.368;14.658;2023-04-08T21:52:52;24.80;;;14.90;;
22571;SDS011;11452;53.368;14.658;2023-04-08T21:57:58;29.67;;;17.10;;
22571;SDS011;11452;53.368;14.658;2023-04-08T22:03:03;26.20;;;15.23;;
22571;SDS011;11452;53.368;14.658;2023-04-08T22:08:10;30.90;;;16.13;;
22571;SDS011;11452;53.368;14.658;2023-04-08T22:13:15;27.03;;;15.47;;
22571;SDS011;11452;53.368;14.658;2023-04-08T22:18:23;27.10;;;13.77;;
22571;SDS011;11452;53.368;14.658;2023-04-08T22:23:28;31.70;;;16.47;;
22571;SDS011;11452;53.368;14.658;2023-04-08T22:28:34;27.57;;;14.17;;
22571;SDS011;11452;53.368;14.658;2023-04-08T22:33:40;28.73;;;14.30;;
22571;SDS011;11452;53.368;14.658;2023-04-08T22:38:45;30.13;;;13.27;;
22571;SDS011;11452;53.368;14.658;2023-04-08T22:43:51;27.33;;;12.87;;
22571;SDS011;11452;53.368;14.658;2023-04-08T22:48:56;24.03;;;11.20;;
22571;SDS011;11452;53.368;14.658;2023-04-08T22:54:02;27.57;;;13.73;;
22571;SDS011;11452;53.368;14.658;2023-04-08T22:59:08;25.80;;;13.40;;
22571;SDS011;11452;53.368;14.658;2023-04-08T23:04:13;26.50;;;12.30;;
22571;SDS011;11452;53.368;14.658;2023-04-08T23:09:19;28.47;;;13.27;;
22571;SDS011;11452;53.368;14.658;2023-04-08T23:14:26;29.00;;;13.40;;
22571;SDS011;11452;53.368;14.658;2023-04-08T23:19:33;31.93;;;15.43;;
22571;SDS011;11452;53.368;14.658;2023-04-08T23:24:40;37.93;;;15.57;;
22571;SDS011;11452;53.368;14.658;2023-04-08T23:29:45;36.63;;;15.67;;
22571;SDS011;11452;53.368;14.658;2023-04-08T23:34:51;30.77;;;15.73;;
22571;SDS011;11452;53.368;14.658;2023-04-08T23:39:56;34.57;;;15.30;;
22571;SDS011;11452;53.368;14.658;2023-04-08T23:45:02;29.50;;;14.73;;
22571;SDS011;11452;53.368;14.658;2023-04-08T23:50:09;28.20;;;15.23;;
22571;SDS011;11452;53.368;14.658;2023-04-08T23:55:14;31.70;;;14.40;;
